Time;durP1;ratioP1;P1;durP2;ratioP2;P2;SDS_P1;SDS_P2;PMS_P1;PMS_P2;Temp;Humidity;BMP_temperature;BMP_pressure;BME280_temperature;BME280_humidity;BME280_pressure;Samples;Min_cycle;Max_cycle;Signal;HPM_P1;HPM_P2
2023/03/13 00:01:13;;;;;;;2.45;1.38;;;7.00;99.90;;;;;;7375022;19;20329;-79
2023/03/13 00:03:39;;;;;;;1.65;1.55;;;6.90;99.90;;;;;;7273070;19;2004619;-79
2023/03/13 00:06:04;;;;;;;1.58;1.48;;;7.00;99.90;;;;;;7374325;19;20835;-79
2023/03/13 00:08:30;;;;;;;2.10;1.57;;;6.90;99.90;;;;;;7375103;19;20328;-79
2023/03/13 00:10:56;;;;;;;2.17;1.50;;;7.00;99.90;;;;;;7379106;19;20341;-77
2023/03/13 00:13:22;;;;;;;2.17;1.50;;;7.00;99.90;;;;;;7380604;19;20331;-80
2023/03/13 00:15:48;;;;;;;2.70;1.88;;;7.00;99.90;;;;;;7379017;19;20359;-77
2023/03/13 00:18:13;;;;;;;1.97;1.33;;;7.00;99.90;;;;;;7382007;19;20353;-79
2023/03/13 00:20:39;;;;;;;2.15;1.60;;;7.00;99.90;;;;;;7383826;19;20768;-80
2023/03/13 00:23:05;;;;;;;1.40;1.30;;;7.00;99.90;;;;;;7381121;19;20320;-79
2023/03/13 00:25:30;;;;;;;1.50;1.40;;;6.90;99.90;;;;;;7379878;19;20345;-81
2023/03/13 00:27:56;;;;;;;2.47;1.50;;;7.00;99.90;;;;;;7384108;19;22212;-79
2023/03/13 00:30:21;;;;;;;2.20;1.50;;;7.00;99.90;;;;;;7381917;19;20378;-79
2023/03/13 00:32:47;;;;;;;1.75;1.50;;;7.00;99.90;;;;;;7382258;19;20340;-80
2023/03/13 00:35:13;;;;;;;1.53;1.43;;;7.00;99.90;;;;;;7380992;19;20324;-79
2023/03/13 00:37:39;;;;;;;2.65;1.60;;;7.00;99.90;;;;;;7381726;19;20316;-78
2023/03/13 00:40:05;;;;;;;1.60;1.30;;;7.00;99.90;;;;;;7383532;19;20835;-80
2023/03/13 00:42:30;;;;;;;2.50;1.70;;;7.00;99.90;;;;;;7378243;19;21279;-78
2023/03/13 00:44:56;;;;;;;1.87;1.60;;;6.90;99.90;;;;;;7380154;19;20400;-84
2023/03/13 00:47:22;;;;;;;1.85;1.70;;;6.90;99.90;;;;;;7383997;19;20702;-78
2023/03/13 00:49:49;;;;;;;2.95;1.75;;;6.90;99.90;;;;;;7382679;19;20320;-79
2023/03/13 00:52:14;;;;;;;2.65;1.88;;;6.90;99.90;;;;;;7380601;19;20360;-79
2023/03/13 00:54:40;;;;;;;2.73;1.50;;;6.80;99.90;;;;;;7380370;19;20325;-81
2023/03/13 00:57:06;;;;;;;2.90;1.70;;;6.80;99.90;;;;;;7382067;19;20418;-79
2023/03/13 00:59:31;;;;;;;2.47;1.83;;;6.80;99.90;;;;;;7382817;19;20312;-85
2023/03/13 01:01:57;;;;;;;4.32;1.67;;;6.80;99.90;;;;;;7381981;19;20411;-78
2023/03/13 01:04:22;;;;;;;1.90;1.70;;;6.90;99.90;;;;;;7379940;19;20352;-79
2023/03/13 01:06:50;;;;;;;1.60;1.50;;;6.90;99.90;;;;;;7382635;19;21067;-81
2023/03/13 01:09:15;;;;;;;1.65;1.40;;;6.90;99.90;;;;;;7380296;19;20388;-78
2023/03/13 01:11:42;;;;;;;2.37;1.70;;;6.90;99.90;;;;;;7381499;19;20321;-81
2023/03/13 01:14:11;;;;;;;2.15;1.30;;;6.80;99.90;;;;;;7382527;19;20324;-79
2023/03/13 01:16:37;;;;;;;1.60;1.50;;;6.90;99.90;;;;;;7379575;19;20357;-81
2023/03/13 01:19:05;;;;;;;2.30;1.50;;;6.90;99.90;;;;;;7381211;19;21245;-78
2023/03/13 01:21:30;;;;;;;2.28;1.40;;;6.90;99.90;;;;;;7380971;19;20329;-77
2023/03/13 01:23:56;;;;;;;1.42;1.33;;;6.90;99.90;;;;;;7379111;19;20344;-80
2023/03/13 01:26:23;;;;;;;1.93;1.33;;;6.90;99.90;;;;;;7380434;19;20333;-80
2023/03/13 01:28:48;;;;;;;1.98;1.55;;;6.90;99.90;;;;;;7382306;19;20843;-80
2023/03/13 01:31:24;;;;;;;1.83;1.40;;;6.90;99.90;;;;;;7380794;19;20324;-83
2023/03/13 01:33:52;;;;;;;2.03;1.30;;;6.90;99.90;;;;;;7382593;19;20696;-79
2023/03/13 01:36:17;;;;;;;1.55;1.42;;;6.90;99.90;;;;;;7382463;19;20836;-78
2023/03/13 01:38:46;;;;;;;2.30;1.63;;;6.90;99.90;;;;;;7381381;19;20327;-80
2023/03/13 01:41:11;;;;;;;3.72;1.90;;;6.90;99.90;;;;;;7382433;19;20328;-81
2023/03/13 01:43:37;;;;;;;2.73;1.63;;;6.90;99.90;;;;;;7381829;19;20319;-78
2023/03/13 01:46:17;;;;;;;2.58;1.80;;;6.90;99.90;;;;;;7383759;19;20296;-80
2023/03/13 01:49:23;;;;;;;2.30;1.70;;;7.00;99.90;;;;;;7279946;19;2004173;-83
2023/03/13 01:51:58;;;;;;;3.50;1.73;;;6.90;99.90;;;;;;7279807;19;2004164;-79
2023/03/13 01:54:37;;;;;;;4.47;1.70;;;6.90;99.90;;;;;;7378601;19;20325;-79
2023/03/13 01:57:05;;;;;;;1.88;1.42;;;6.80;99.90;;;;;;7377092;19;20348;-77
2023/03/13 01:59:51;;;;;;;3.30;1.70;;;6.80;99.90;;;;;;7379646;19;20329;-81
2023/03/13 02:02:17;;;;;;;3.92;1.90;;;6.80;99.90;;;;;;7272596;19;2019003;-79
2023/03/13 02:04:46;;;;;;;3.03;1.70;;;6.90;99.90;;;;;;7377135;19;20353;-79
2023/03/13 02:07:15;;;;;;;3.90;1.95;;;6.90;99.90;;;;;;7379711;19;20353;-84
2023/03/13 02:09:41;;;;;;;3.97;1.70;;;6.90;99.90;;;;;;7377568;19;20390;-86
2023/03/13 02:12:14;;;;;;;2.95;1.75;;;6.90;99.90;;;;;;7379676;19;20313;-80
2023/03/13 02:14:41;;;;;;;3.83;1.93;;;6.90;99.90;;;;;;7275864;19;2004347;-77
2023/03/13 02:17:06;;;;;;;2.72;1.92;;;7.00;99.90;;;;;;7379160;19;20343;-80
2023/03/13 02:19:46;;;;;;;3.73;2.20;;;7.00;99.90;;;;;;7376704;19;21091;-79
2023/03/13 02:22:30;;;;;;;3.17;2.25;;;7.00;99.90;;;;;;7275656;19;2005913;-79
2023/03/13 02:25:06;;;;;;;2.60;1.92;;;7.00;99.90;;;;;;7377449;19;20426;-79
2023/03/13 02:27:31;;;;;;;3.50;2.00;;;7.00;99.90;;;;;;7377232;19;20309;-79
2023/03/13 02:29:57;;;;;;;4.13;2.22;;;7.00;99.90;;;;;;7384768;19;25550;-80
2023/03/13 02:32:23;;;;;;;3.75;2.00;;;7.10;99.90;;;;;;7376676;19;20308;-80
2023/03/13 02:34:50;;;;;;;3.90;2.07;;;7.10;99.90;;;;;;7375546;19;20842;-79
2023/03/13 02:37:15;;;;;;;3.55;2.10;;;7.10;99.90;;;;;;7378685;19;20316;-80
2023/03/13 02:39:44;;;;;;;7.07;2.17;;;7.10;99.90;;;;;;7378019;19;20704;-80
2023/03/13 02:42:10;;;;;;;4.35;2.08;;;7.00;99.90;;;;;;7376553;19;20653;-78
2023/03/13 02:44:41;;;;;;;5.20;2.60;;;7.10;99.90;;;;;;7379907;19;20324;-78
2023/03/13 02:47:10;;;;;;;3.35;2.22;;;7.00;99.90;;;;;;7377059;19;20997;-79
2023/03/13 02:49:36;;;;;;;3.42;2.20;;;7.00;99.90;;;;;;7377139;19;20351;-79
2023/03/13 02:52:15;;;;;;;3.97;2.10;;;7.10;99.90;;;;;;7375792;19;20317;-80
2023/03/13 02:54:43;;;;;;;3.92;2.08;;;7.10;99.90;;;;;;7273994;19;2004400;-80
2023/03/13 02:57:09;;;;;;;5.30;2.20;;;7.10;99.90;;;;;;7378475;19;20397;-78
2023/03/13 02:59:34;;;;;;;4.53;2.30;;;7.00;99.90;;;;;;7379534;19;21132;-79
2023/03/13 03:02:00;;;;;;;6.53;2.58;;;7.10;99.90;;;;;;7374900;19;20324;-83
2023/03/13 03:04:25;;;;;;;7.07;2.53;;;7.10;99.90;;;;;;7375262;19;20340;-79
2023/03/13 03:06:54;;;;;;;5.40;2.63;;;7.10;99.90;;;;;;7376329;19;20336;-79
2023/03/13 03:09:20;;;;;;;3.85;2.53;;;7.00;99.90;;;;;;7377414;19;20343;-80
2023/03/13 03:11:45;;;;;;;4.80;2.30;;;7.00;99.90;;;;;;7374962;19;20340;-79
2023/03/13 03:14:13;;;;;;;3.33;2.20;;;7.00;99.90;;;;;;7379031;19;20309;-78
2023/03/13 03:16:42;;;;;;;6.15;2.60;;;7.00;99.90;;;;;;7378689;19;20320;-81
2023/03/13 03:19:09;;;;;;;4.28;2.35;;;7.00;99.90;;;;;;7380256;19;20625;-80
2023/03/13 03:21:35;;;;;;;7.68;2.78;;;7.00;99.90;;;;;;7381708;19;20308;-80
2023/03/13 03:24:00;;;;;;;5.68;2.58;;;7.00;99.90;;;;;;7378413;19;20332;-80
2023/03/13 03:26:26;;;;;;;6.83;2.83;;;7.10;99.90;;;;;;7380796;19;20288;-79
2023/03/13 03:28:52;;;;;;;2.35;2.00;;;7.10;99.90;;;;;;7379870;19;20878;-82
2023/03/13 03:31:18;;;;;;;4.00;2.40;;;7.10;99.90;;;;;;7378263;19;20338;-82
2023/03/13 03:33:44;;;;;;;3.63;2.30;;;7.10;99.90;;;;;;7376974;19;20354;-81
2023/03/13 03:36:21;;;;;;;5.80;2.63;;;7.20;99.90;;;;;;7375324;19;20320;-78
2023/03/13 03:38:47;;;;;;;2.97;2.17;;;7.10;99.90;;;;;;7379469;19;20366;-81
2023/03/13 03:41:16;;;;;;;3.80;2.30;;;7.20;99.90;;;;;;7379255;19;20335;-80
2023/03/13 03:43:42;;;;;;;3.83;2.20;;;7.20;99.90;;;;;;7377926;19;20321;-79
2023/03/13 03:46:08;;;;;;;4.25;2.20;;;7.20;99.90;;;;;;7382348;19;20316;-81
2023/03/13 03:48:36;;;;;;;4.07;2.08;;;7.20;99.90;;;;;;7385617;19;20336;-80
2023/03/13 03:51:04;;;;;;;6.30;2.80;;;7.20;99.90;;;;;;7385645;19;20873;-82
2023/03/13 03:53:32;;;;;;;3.97;2.08;;;7.20;99.90;;;;;;7385833;19;20401;-80
2023/03/13 03:55:58;;;;;;;7.55;2.72;;;7.20;99.90;;;;;;7384194;19;20900;-81
2023/03/13 03:58:23;;;;;;;4.70;2.33;;;7.30;99.90;;;;;;7387334;19;20313;-78
2023/03/13 04:01:06;;;;;;;4.68;2.33;;;7.30;99.90;;;;;;7385296;19;20316;-81
2023/03/13 04:03:32;;;;;;;3.80;2.30;;;7.30;99.90;;;;;;7384762;19;20327;-80
2023/03/13 04:05:57;;;;;;;6.35;2.60;;;7.40;99.90;;;;;;7384071;19;20847;-82
2023/03/13 04:08:23;;;;;;;7.82;2.90;;;7.40;99.90;;;;;;7383880;19;20333;-81
2023/03/13 04:10:49;;;;;;;5.60;2.40;;;7.40;99.90;;;;;;7384006;19;20313;-79
2023/03/13 04:13:16;;;;;;;3.65;2.28;;;7.30;99.90;;;;;;7383607;19;20347;-82
2023/03/13 04:15:42;;;;;;;7.63;3.10;;;7.40;99.90;;;;;;7382975;19;20317;-79
2023/03/13 04:18:09;;;;;;;4.28;2.47;;;7.40;99.90;;;;;;7384714;19;20328;-80
2023/03/13 04:20:36;;;;;;;5.63;2.50;;;7.40;99.90;;;;;;7383106;19;20312;-80
2023/03/13 04:23:02;;;;;;;6.32;2.20;;;7.50;99.90;;;;;;7379908;19;20317;-81
2023/03/13 04:25:28;;;;;;;6.80;2.70;;;7.40;99.90;;;;;;7379338;19;20916;-79
2023/03/13 04:27:57;;;;;;;6.03;2.67;;;7.50;99.90;;;;;;7382812;19;20341;-80
2023/03/13 04:30:27;;;;;;;5.03;2.80;;;7.50;99.90;;;;;;7381066;19;20309;-78
2023/03/13 04:33:09;;;;;;;4.07;2.47;;;7.50;99.90;;;;;;7282120;19;2006137;-82
2023/03/13 04:35:49;;;;;;;4.90;2.70;;;7.50;99.90;;;;;;7386811;19;20354;-83
2023/03/13 04:38:23;;;;;;;5.03;2.83;;;7.40;99.90;;;;;;7386788;19;20712;-77
2023/03/13 04:41:08;;;;;;;9.07;2.80;;;7.40;99.90;;;;;;7382556;19;20340;-76
2023/03/13 04:43:51;;;;;;;6.07;2.63;;;7.50;99.90;;;;;;7268333;19;2004183;-77
2023/03/13 04:46:45;;;;;;;4.93;2.63;;;7.50;99.90;;;;;;7278498;19;2004510;-78
2023/03/13 04:49:30;;;;;;;4.55;2.55;;;7.50;99.90;;;;;;7381859;19;20316;-76
2023/03/13 04:52:04;;;;;;;5.53;2.58;;;7.50;99.90;;;;;;7381507;19;20300;-79
2023/03/13 04:54:52;;;;;;;7.07;2.47;;;7.50;99.90;;;;;;7279206;19;2004269;-78
2023/03/13 04:57:38;;;;;;;5.07;2.20;;;7.50;99.90;;;;;;7381549;19;20702;-78
2023/03/13 05:00:18;;;;;;;3.37;2.33;;;7.60;99.90;;;;;;7278269;19;2005890;-78
2023/03/13 05:03:02;;;;;;;7.32;2.85;;;7.60;99.90;;;;;;7382456;19;20305;-76
2023/03/13 05:05:40;;;;;;;6.83;2.57;;;7.60;99.90;;;;;;7283253;19;2004502;-80
2023/03/13 05:08:38;;;;;;;5.07;2.95;;;7.60;99.90;;;;;;7382286;19;20309;-84
2023/03/13 05:11:20;;;;;;;6.43;2.75;;;7.60;99.90;;;;;;7280569;19;2004184;-79
2023/03/13 05:13:46;;;;;;;5.73;2.57;;;7.60;99.90;;;;;;7383166;19;20321;-79
2023/03/13 05:16:28;;;;;;;6.00;2.80;;;7.60;99.90;;;;;;7383053;19;20340;-80
2023/03/13 05:19:14;;;;;;;6.03;2.55;;;7.60;99.90;;;;;;7278162;19;2004327;-80
2023/03/13 05:21:58;;;;;;;7.70;3.35;;;7.70;99.90;;;;;;7382013;19;20350;-82
2023/03/13 05:24:44;;;;;;;6.93;2.83;;;7.70;99.90;;;;;;7278611;19;2004272;-78
2023/03/13 05:27:31;;;;;;;5.30;2.30;;;7.70;99.90;;;;;;7380219;19;20319;-80
2023/03/13 05:30:10;;;;;;;7.97;2.83;;;7.70;99.90;;;;;;7277869;19;2004374;-79
2023/03/13 05:32:59;;;;;;;6.47;2.35;;;7.70;99.90;;;;;;7380114;19;20328;-83
2023/03/13 05:35:41;;;;;;;7.13;2.67;;;7.70;99.90;;;;;;7278867;19;2004241;-78
2023/03/13 05:38:26;;;;;;;6.88;2.67;;;7.80;99.90;;;;;;7379911;19;20340;-79
2023/03/13 05:41:04;;;;;;;6.47;2.47;;;7.80;99.90;;;;;;7381120;19;20840;-79
2023/03/13 05:43:42;;;;;;;7.07;2.45;;;7.80;99.90;;;;;;7275022;19;2004268;-77
2023/03/13 05:46:27;;;;;;;3.70;2.28;;;7.90;99.90;;;;;;7376666;19;20332;-79
2023/03/13 05:49:03;;;;;;;4.70;2.40;;;7.90;99.90;;;;;;7380468;19;20304;-82
2023/03/13 05:51:45;;;;;;;6.95;2.22;;;7.90;99.90;;;;;;7278450;19;2004219;-79
2023/03/13 05:54:35;;;;;;;7.95;2.95;;;8.00;99.90;;;;;;7382352;19;20309;-80
2023/03/13 05:57:19;;;;;;;6.57;2.63;;;8.00;99.90;;;;;;7278522;19;2004426;-77
2023/03/13 06:00:03;;;;;;;6.38;2.20;;;8.00;99.90;;;;;;7382494;19;20320;-86
2023/03/13 06:03:00;;;;;;;6.03;2.70;;;8.10;99.90;;;;;;7174269;19;2004498;-89
2023/03/13 06:05:32;;;;;;;8.90;2.63;;;8.10;99.90;;;;;;7378183;19;20329;-78
2023/03/13 06:08:01;;;;;;;7.03;2.60;;;8.10;99.90;;;;;;7375739;19;20345;-77
2023/03/13 06:10:27;;;;;;;4.35;2.08;;;8.20;99.90;;;;;;7379142;19;20321;-79
2023/03/13 06:12:56;;;;;;;7.72;2.45;;;8.20;99.90;;;;;;7382576;19;20867;-79
2023/03/13 06:15:25;;;;;;;7.20;2.47;;;8.30;99.90;;;;;;7379762;19;20332;-77
2023/03/13 06:18:14;;;;;;;5.30;2.63;;;8.30;99.90;;;;;;7281085;19;2004403;-80
2023/03/13 06:20:40;;;;;;;5.50;2.45;;;8.30;99.90;;;;;;7380383;19;20756;-81
2023/03/13 06:23:06;;;;;;;6.00;2.63;;;8.30;99.90;;;;;;7381152;19;20412;-78
2023/03/13 06:25:33;;;;;;;6.27;2.47;;;8.40;99.90;;;;;;7380221;19;20407;-77
2023/03/13 06:27:59;;;;;;;6.18;2.67;;;8.40;99.90;;;;;;7379198;19;20347;-80
2023/03/13 06:30:25;;;;;;;7.23;2.87;;;8.40;99.90;;;;;;7379514;19;20441;-81
2023/03/13 06:32:51;;;;;;;5.80;2.50;;;8.40;99.90;;;;;;7381124;19;20872;-80
2023/03/13 06:35:17;;;;;;;4.70;2.60;;;8.30;99.90;;;;;;7379067;19;20991;-80
2023/03/13 06:37:42;;;;;;;5.83;2.53;;;8.40;99.90;;;;;;7379400;19;20305;-82
2023/03/13 06:40:09;;;;;;;6.10;2.38;;;8.40;99.90;;;;;;7381250;19;20312;-79
2023/03/13 06:42:35;;;;;;;4.97;2.63;;;8.40;99.90;;;;;;7376152;19;20305;-80
2023/03/13 06:45:02;;;;;;;4.75;2.28;;;8.50;99.90;;;;;;7372956;19;20356;-79
2023/03/13 06:47:30;;;;;;;8.07;4.05;;;8.60;99.90;;;;;;7374306;19;21028;-80
2023/03/13 06:49:55;;;;;;;7.82;3.35;;;8.60;99.90;;;;;;7372869;19;20889;-82
2023/03/13 06:52:22;;;;;;;7.13;3.00;;;8.70;99.90;;;;;;7374781;19;20316;-80
2023/03/13 06:54:47;;;;;;;5.93;2.58;;;8.70;99.90;;;;;;7384296;19;20770;-82
2023/03/13 06:57:13;;;;;;;7.38;2.38;;;8.70;99.90;;;;;;7385707;19;20318;-80
2023/03/13 06:59:39;;;;;;;8.07;2.75;;;8.70;99.90;;;;;;7386977;19;20396;-83
2023/03/13 07:02:05;;;;;;;5.13;2.35;;;8.70;99.90;;;;;;7385790;19;20842;-80
2023/03/13 07:04:30;;;;;;;8.37;2.90;;;8.70;99.90;;;;;;7385519;19;20316;-79
2023/03/13 07:06:56;;;;;;;5.57;2.75;;;8.70;99.90;;;;;;7386633;19;20317;-79
2023/03/13 07:09:21;;;;;;;7.93;3.43;;;8.70;99.90;;;;;;7386587;19;20337;-81
2023/03/13 07:11:48;;;;;;;8.63;3.63;;;8.70;99.90;;;;;;7386009;19;20318;-80
2023/03/13 07:14:13;;;;;;;6.30;2.60;;;8.70;99.90;;;;;;7385726;19;20384;-79
2023/03/13 07:16:39;;;;;;;6.45;2.50;;;8.70;99.90;;;;;;7386763;19;20317;-84
2023/03/13 07:19:05;;;;;;;6.20;2.77;;;8.70;99.90;;;;;;7389473;19;20329;-79
2023/03/13 07:21:30;;;;;;;4.85;2.38;;;8.70;99.90;;;;;;7393584;19;20331;-80
2023/03/13 07:23:56;;;;;;;7.87;2.60;;;8.70;99.90;;;;;;7383808;19;20320;-80
2023/03/13 07:26:21;;;;;;;8.48;2.20;;;8.70;99.90;;;;;;7388620;19;20320;-79
2023/03/13 07:28:56;;;;;;;5.47;2.50;;;8.70;99.90;;;;;;7390561;19;20312;-82
2023/03/13 07:31:23;;;;;;;5.25;2.55;;;8.80;99.90;;;;;;7388205;19;20363;-81
2023/03/13 07:33:51;;;;;;;7.45;2.80;;;8.80;99.90;;;;;;7385373;19;20356;-80
2023/03/13 07:36:17;;;;;;;8.67;2.93;;;8.80;99.90;;;;;;7388560;19;21064;-80
2023/03/13 07:38:48;;;;;;;4.78;2.60;;;8.80;99.90;;;;;;7389139;19;20337;-80
2023/03/13 07:41:13;;;;;;;6.18;2.65;;;8.90;99.90;;;;;;7389358;19;20848;-82
2023/03/13 07:43:39;;;;;;;6.50;2.33;;;8.90;99.90;;;;;;7390891;19;20345;-81
2023/03/13 07:46:05;;;;;;;3.57;2.27;;;9.00;99.90;;;;;;7388912;19;20330;-81
2023/03/13 07:48:41;;;;;;;5.13;2.70;;;9.00;99.90;;;;;;7391571;19;20325;-81
2023/03/13 07:51:09;;;;;;;5.00;2.70;;;9.00;99.90;;;;;;7389724;19;20305;-81
2023/03/13 07:53:35;;;;;;;3.95;2.60;;;9.10;99.90;;;;;;7389038;19;20329;-81
2023/03/13 07:56:02;;;;;;;5.18;2.60;;;9.10;99.90;;;;;;7388889;19;20324;-84
2023/03/13 07:58:30;;;;;;;5.65;2.78;;;9.10;99.90;;;;;;7388318;19;20323;-82
2023/03/13 08:00:55;;;;;;;7.15;2.83;;;9.20;99.90;;;;;;7389019;19;20330;-82
2023/03/13 08:03:22;;;;;;;6.60;3.07;;;9.20;99.90;;;;;;7391708;19;20312;-82
2023/03/13 08:05:47;;;;;;;3.92;3.08;;;9.30;99.90;;;;;;7395204;19;20357;-82
2023/03/13 08:08:13;;;;;;;6.28;3.35;;;9.20;99.90;;;;;;7397531;19;20795;-85
2023/03/13 08:10:39;;;;;;;5.47;3.50;;;9.20;99.90;;;;;;7400875;19;20313;-88
2023/03/13 08:13:04;;;;;;;7.50;3.55;;;9.30;99.90;;;;;;7396140;19;20309;-85
2023/03/13 08:15:36;;;;;;;7.60;3.27;;;9.20;99.90;;;;;;7400950;19;20430;-81
2023/03/13 08:18:01;;;;;;;9.45;3.60;;;9.30;99.90;;;;;;7400875;19;20325;-81
2023/03/13 08:20:27;;;;;;;6.87;3.37;;;9.30;99.90;;;;;;7382354;19;20324;-86
2023/03/13 08:22:55;;;;;;;6.57;3.47;;;9.20;99.90;;;;;;7404512;19;20384;-82
2023/03/13 08:25:20;;;;;;;6.25;3.30;;;9.20;99.90;;;;;;7403412;19;20317;-84
2023/03/13 08:27:46;;;;;;;6.23;3.60;;;9.10;99.90;;;;;;7400942;19;20317;-84
2023/03/13 08:30:12;;;;;;;6.32;3.90;;;9.10;99.90;;;;;;7374442;19;21039;-81
2023/03/13 08:32:38;;;;;;;6.63;4.00;;;9.00;99.90;;;;;;7398183;19;20350;-80
2023/03/13 08:35:07;;;;;;;6.65;3.70;;;9.00;99.90;;;;;;7404296;19;20354;-91
2023/03/13 08:37:33;;;;;;;7.70;3.65;;;9.00;99.90;;;;;;7407962;19;20341;-81
2023/03/13 08:39:59;;;;;;;7.18;3.67;;;9.00;99.90;;;;;;7410830;19;20343;-90
2023/03/13 08:42:44;;;;;;;7.70;3.35;;;9.00;99.90;;;;;;7413096;19;20317;-84
2023/03/13 08:45:14;;;;;;;8.77;3.75;;;8.90;99.90;;;;;;7403615;19;20365;-90
2023/03/13 08:47:42;;;;;;;4.97;3.63;;;8.90;99.90;;;;;;7412509;19;20324;-92
2023/03/13 08:50:12;;;;;;;7.97;3.70;;;8.80;99.90;;;;;;7389587;19;20309;-88
2023/03/13 08:53:14;;;;;;;5.28;3.78;;;8.80;99.90;;;;;;7380633;19;20347;-93
2023/03/13 08:56:46;;;;;;;4.35;3.58;;;8.70;99.90;;;;;;7404282;19;20303;-93
2023/03/13 08:59:31;;;;;;;7.28;3.28;;;8.70;99.90;;;;;;7393484;19;20324;-94
2023/03/13 09:01:57;;;;;;;6.80;3.63;;;8.70;99.90;;;;;;7372635;19;20360;-95
2023/03/13 09:04:45;;;;;;;6.28;3.80;;;8.80;99.90;;;;;;7391175;19;20308;-94
2023/03/13 09:08:50;;;;;;;5.68;3.88;;;8.70;99.90;;;;;;7268200;19;2004405;-93
2023/03/13 09:11:39;;;;;;;8.13;3.50;;;8.70;99.90;;;;;;7377045;19;20325;-83
2023/03/13 09:14:28;;;;;;;5.60;3.37;;;8.70;99.90;;;;;;7381587;19;20305;-88
2023/03/13 09:17:03;;;;;;;5.78;3.65;;;8.70;99.90;;;;;;7300848;19;2004494;-88
2023/03/13 09:19:35;;;;;;;5.28;3.50;;;8.70;99.90;;;;;;7380902;19;20319;-90
2023/03/13 09:22:16;;;;;;;6.82;3.55;;;8.70;99.90;;;;;;7352382;19;20360;-92
2023/03/13 09:24:44;;;;;;;5.28;3.75;;;8.60;99.90;;;;;;7405425;19;20381;-90
2023/03/13 09:27:14;;;;;;;3.88;3.30;;;8.60;99.90;;;;;;7401577;19;20351;-85
2023/03/13 09:29:48;;;;;;;5.03;3.42;;;8.70;99.90;;;;;;7396673;19;20301;-82
2023/03/13 09:32:19;;;;;;;5.55;3.45;;;8.70;99.90;;;;;;7270205;19;2004222;-81
2023/03/13 09:34:47;;;;;;;6.72;3.15;;;8.70;99.90;;;;;;7392231;19;20341;-80
2023/03/13 09:37:16;;;;;;;4.32;3.38;;;8.70;99.90;;;;;;7390509;19;20959;-83
2023/03/13 09:39:42;;;;;;;3.63;3.08;;;8.70;99.90;;;;;;7392856;19;20300;-85
2023/03/13 09:42:50;;;;;;;2.78;2.53;;;8.70;99.90;;;;;;7395697;19;20320;-90
2023/03/13 09:45:38;;;;;;;4.27;3.10;;;8.80;99.90;;;;;;7162956;19;2004378;-83
2023/03/13 09:48:44;;;;;;;4.30;3.33;;;8.80;99.90;;;;;;7398835;19;20312;-83
2023/03/13 09:51:43;;;;;;;3.70;2.75;;;9.00;99.90;;;;;;7190953;19;2004420;-82
2023/03/13 09:54:24;;;;;;;3.60;2.75;;;9.10;99.90;;;;;;7292080;19;2004254;-81
2023/03/13 09:56:57;;;;;;;7.38;4.55;;;9.10;99.90;;;;;;7290032;19;2004170;-79
2023/03/13 09:59:52;;;;;;;4.18;2.85;;;9.20;99.90;;;;;;7384557;19;20681;-84
2023/03/13 10:02:30;;;;;;;4.40;2.90;;;9.40;99.90;;;;;;7291717;19;2004165;-80
2023/03/13 10:05:20;;;;;;;7.90;2.85;;;9.30;99.90;;;;;;7373515;19;20348;-81
2023/03/13 10:07:46;;;;;;;7.13;3.53;;;9.30;99.90;;;;;;7293398;19;2004210;-82
2023/03/13 10:10:14;;;;;;;7.38;4.18;;;9.40;99.90;;;;;;7391435;19;20785;-82
2023/03/13 10:12:45;;;;;;;10.80;7.07;;;9.40;99.90;;;;;;7394593;19;20365;-80
2023/03/13 10:15:48;;;;;;;7.25;4.93;;;9.40;99.90;;;;;;7395090;19;20368;-80
2023/03/13 10:18:20;;;;;;;4.40;3.15;;;9.40;99.90;;;;;;7191156;19;2004383;-84
2023/03/13 10:20:59;;;;;;;5.13;3.00;;;9.40;99.90;;;;;;7398331;19;20305;-80
2023/03/13 10:23:36;;;;;;;2.90;2.53;;;9.50;99.90;;;;;;7392390;19;20720;-82
2023/03/13 10:26:04;;;;;;;5.63;3.67;;;9.50;99.90;;;;;;7393782;19;20321;-82
2023/03/13 10:28:29;;;;;;;4.90;2.10;;;9.50;99.90;;;;;;7391726;19;20321;-81
2023/03/13 10:31:09;;;;;;;4.50;2.80;;;9.60;99.90;;;;;;7368653;19;20360;-83
2023/03/13 10:33:35;;;;;;;4.35;2.67;;;9.70;99.90;;;;;;7394547;19;20317;-82
2023/03/13 10:36:02;;;;;;;3.90;2.60;;;9.80;99.90;;;;;;7391117;19;20317;-80
2023/03/13 10:38:28;;;;;;;4.45;2.78;;;9.70;99.90;;;;;;7394880;19;20300;-80
2023/03/13 10:41:04;;;;;;;3.88;2.50;;;9.80;99.90;;;;;;7392490;19;20324;-81
2023/03/13 10:43:52;;;;;;;5.22;2.72;;;9.80;99.90;;;;;;7389758;19;20304;-81
2023/03/13 10:46:27;;;;;;;3.33;2.45;;;9.80;99.90;;;;;;7289462;19;2004326;-81
2023/03/13 10:48:54;;;;;;;3.00;2.20;;;9.80;99.90;;;;;;7389046;19;20364;-79
2023/03/13 10:51:24;;;;;;;3.97;2.40;;;9.90;99.90;;;;;;7392857;19;20321;-80
2023/03/13 10:53:53;;;;;;;5.18;2.33;;;10.00;99.90;;;;;;7389388;19;20301;-80
2023/03/13 10:56:30;;;;;;;3.65;2.35;;;10.00;99.90;;;;;;7370099;19;20365;-82
2023/03/13 10:58:56;;;;;;;2.95;2.30;;;10.00;99.90;;;;;;7397022;19;20854;-81
2023/03/13 11:01:36;;;;;;;2.77;2.30;;;10.10;99.90;;;;;;7370576;19;20420;-83
2023/03/13 11:04:38;;;;;;;3.73;1.83;;;10.10;99.90;;;;;;7389973;19;20383;-81
2023/03/13 11:07:15;;;;;;;3.97;2.25;;;10.20;99.90;;;;;;7263964;19;2027345;-82
2023/03/13 11:10:13;;;;;;;4.47;2.40;;;10.30;99.90;;;;;;7392164;19;20324;-80
2023/03/13 11:12:45;;;;;;;2.17;1.95;;;10.30;99.90;;;;;;7292370;19;2004130;-82
2023/03/13 11:15:17;;;;;;;3.60;1.60;;;10.50;99.90;;;;;;7390572;19;20352;-85
2023/03/13 11:17:57;;;;;;;3.10;1.98;;;10.50;99.90;;;;;;7281107;19;2004204;-82
2023/03/13 11:20:42;;;;;;;3.45;2.13;;;10.50;99.90;;;;;;7390928;19;20325;-83
2023/03/13 11:23:17;;;;;;;6.65;3.33;;;10.60;99.90;;;;;;7385686;19;20313;-79
2023/03/13 11:26:07;;;;;;;3.85;1.90;;;10.70;99.90;;;;;;7289427;19;2004244;-80
2023/03/13 11:28:57;;;;;;;2.78;1.92;;;10.80;99.90;;;;;;7396621;19;20328;-89
2023/03/13 11:31:40;;;;;;;2.90;1.50;;;10.80;99.90;;;;;;7285828;19;2004149;-81
2023/03/13 11:34:43;;;;;;;1.65;1.50;;;10.90;99.90;;;;;;7395721;19;20309;-81
2023/03/13 11:37:13;;;;;;;1.60;1.50;;;11.00;99.90;;;;;;7289093;19;2004177;-79
2023/03/13 11:40:05;;;;;;;2.00;1.80;;;11.10;99.90;;;;;;7390689;19;20325;-82
2023/03/13 11:42:38;;;;;;;2.03;1.60;;;11.10;99.90;;;;;;7288313;19;2004174;-82
2023/03/13 11:45:46;;;;;;;3.35;1.77;;;11.10;99.90;;;;;;7393542;19;20926;-81
2023/03/13 11:48:39;;;;;;;2.42;1.70;;;11.20;99.90;;;;;;7264245;19;2004419;-83
2023/03/13 11:51:16;;;;;;;1.90;1.60;;;11.30;99.90;;;;;;7393575;19;20313;-80
2023/03/13 11:54:02;;;;;;;2.10;1.50;;;11.30;99.90;;;;;;7291214;19;2004260;-86
2023/03/13 11:56:42;;;;;;;1.50;1.40;;;11.40;99.90;;;;;;7392433;19;20319;-78
2023/03/13 11:59:31;;;;;;;2.40;1.60;;;11.40;99.90;;;;;;7391503;19;20333;-81
2023/03/13 12:02:00;;;;;;;2.00;1.50;;;11.50;99.90;;;;;;7286576;19;2004353;-81
2023/03/13 12:04:41;;;;;;;1.60;1.50;;;11.50;99.90;;;;;;7380857;19;20316;-81
2023/03/13 12:07:33;;;;;;;1.80;1.40;;;11.60;99.90;;;;;;7384864;19;20309;-78
2023/03/13 12:10:08;;;;;;;2.87;1.50;;;11.80;99.90;;;;;;7285436;19;2004487;-82
2023/03/13 12:12:51;;;;;;;3.55;1.70;;;12.00;99.90;;;;;;7366334;19;20316;-78
2023/03/13 12:15:28;;;;;;;1.45;1.35;;;12.10;99.90;;;;;;7284466;19;2004196;-79
2023/03/13 12:18:03;;;;;;;1.42;1.20;;;12.30;99.90;;;;;;7385652;19;20320;-77
2023/03/13 12:20:38;;;;;;;2.40;1.33;;;12.40;99.90;;;;;;7387760;19;20329;-77
2023/03/13 12:23:36;;;;;;;1.40;1.30;;;12.50;99.90;;;;;;7386098;19;20371;-79
2023/03/13 12:26:07;;;;;;;1.35;1.20;;;12.60;99.90;;;;;;7285800;19;2004414;-79
2023/03/13 12:28:59;;;;;;;1.77;1.38;;;12.70;99.90;;;;;;7366757;19;20347;-80
2023/03/13 12:31:37;;;;;;;1.25;1.17;;;12.90;99.90;;;;;;7283887;19;2004187;-78
2023/03/13 12:34:32;;;;;;;2.00;1.40;;;13.20;99.90;;;;;;7387667;19;20336;-75
2023/03/13 12:37:07;;;;;;;1.67;1.20;;;13.40;99.90;;;;;;7283224;19;2004362;-78
2023/03/13 12:39:59;;;;;;;2.33;1.15;;;13.50;99.90;;;;;;7386131;19;21020;-76
2023/03/13 12:42:45;;;;;;;0.90;0.90;;;13.60;99.90;;;;;;7280464;19;2004224;-78
2023/03/13 12:45:18;;;;;;;1.40;1.20;;;13.80;99.90;;;;;;7387212;19;20337;-77
2023/03/13 12:48:12;;;;;;;1.50;1.20;;;13.90;99.90;;;;;;7284502;19;2004413;-77
2023/03/13 12:51:05;;;;;;;1.00;1.00;;;14.00;99.90;;;;;;7385900;19;20332;-77
2023/03/13 12:53:50;;;;;;;1.10;1.00;;;14.00;99.90;;;;;;7284194;19;2005882;-78
2023/03/13 12:56:45;;;;;;;1.70;1.00;;;14.00;99.90;;;;;;7281838;19;2004203;-83
2023/03/13 12:59:17;;;;;;;1.10;1.00;;;13.90;99.90;;;;;;7386332;19;20845;-78
2023/03/13 13:01:47;;;;;;;1.10;1.00;;;13.90;99.90;;;;;;7283405;19;2004328;-83
2023/03/13 13:04:17;;;;;;;0.98;0.98;;;13.90;99.90;;;;;;7385928;19;20847;-76
2023/03/13 13:07:18;;;;;;;1.58;1.10;;;13.90;99.90;;;;;;7385099;19;21161;-82
2023/03/13 13:10:05;;;;;;;0.90;0.90;;;13.90;99.90;;;;;;7282366;19;2004237;-77
2023/03/13 13:12:31;;;;;;;0.90;0.90;;;13.90;99.90;;;;;;7388226;19;20305;-77
2023/03/13 13:14:59;;;;;;;0.90;0.90;;;13.90;99.90;;;;;;7386412;19;20328;-81
2023/03/13 13:17:48;;;;;;;1.90;0.90;;;13.90;99.90;;;;;;7384915;19;20325;-77
2023/03/13 13:20:30;;;;;;;1.20;1.10;;;13.90;99.90;;;;;;7283044;19;2004410;-78
2023/03/13 13:23:20;;;;;;;1.10;1.00;;;13.90;99.90;;;;;;7386733;19;20337;-83
2023/03/13 13:25:47;;;;;;;1.65;1.00;;;13.90;99.90;;;;;;7284254;19;2004361;-80